createdAt,value
2022-12-01T00:01:13.137Z,12.70
2022-12-01T00:03:40.349Z,13.52
2022-12-01T00:06:13.212Z,13.88
2022-12-01T00:08:39.886Z,15.88
2022-12-01T00:11:14.381Z,15.32
2022-12-01T00:13:41.030Z,14.07
2022-12-01T00:16:16.052Z,15.60
2022-12-01T00:18:43.237Z,13.27
2022-12-01T00:21:21.740Z,16.55
2022-12-01T00:23:51.380Z,15.65
2022-12-01T00:26:19.702Z,14.48
2022-12-01T00:28:54.450Z,14.70
2022-12-01T00:31:21.969Z,13.52
2022-12-01T00:33:48.941Z,14.20
2022-12-01T00:36:16.042Z,14.68
2022-12-01T00:38:42.759Z,14.13
2022-12-01T00:41:09.789Z,13.50
2022-12-01T00:43:36.827Z,12.38
2022-12-01T00:46:04.315Z,13.93
2022-12-01T00:48:31.418Z,12.98
2022-12-01T00:50:58.296Z,12.95
2022-12-01T00:53:25.124Z,14.30
2022-12-01T00:55:54.149Z,13.48
2022-12-01T00:58:24.683Z,13.73
2022-12-01T01:01:00.783Z,14.35
2022-12-01T01:03:28.311Z,14.10
2022-12-01T01:05:55.046Z,12.73
2022-12-01T01:08:21.935Z,13.18
2022-12-01T01:10:51.906Z,12.38
2022-12-01T01:13:27.841Z,12.63
2022-12-01T01:18:33.014Z,13.25
2022-12-01T01:21:03.340Z,13.10
2022-12-01T01:23:30.417Z,13.52
2022-12-01T01:26:06.418Z,13.07
2022-12-01T01:28:33.239Z,12.82
2022-12-01T01:31:00.208Z,13.05
2022-12-01T01:33:26.957Z,14.48
2022-12-01T01:35:53.682Z,12.40
2022-12-01T01:38:20.335Z,13.30
2022-12-01T01:40:47.597Z,14.50
2022-12-01T01:43:19.076Z,12.55
2022-12-01T01:45:46.244Z,13.25
2022-12-01T01:48:13.822Z,12.43
2022-12-01T01:50:40.813Z,13.68
2022-12-01T01:53:12.797Z,14.38
2022-12-01T01:55:39.799Z,12.52
2022-12-01T01:58:10.866Z,12.48
2022-12-01T02:00:42.069Z,11.70
2022-12-01T02:03:12.575Z,12.38
2022-12-01T02:05:40.164Z,13.07
2022-12-01T02:08:12.520Z,12.10
2022-12-01T02:11:00.829Z,14.90
2022-12-01T02:13:33.247Z,14.07
2022-12-01T02:16:05.718Z,12.48
2022-12-01T02:18:59.397Z,11.45
2022-12-01T02:21:28.935Z,13.27
2022-12-01T02:23:55.558Z,12.60
2022-12-01T02:26:31.156Z,14.25
2022-12-01T02:29:27.742Z,14.77
2022-12-01T02:32:27.307Z,14.38
2022-12-01T02:34:59.280Z,14.18
2022-12-01T02:37:45.371Z,15.07
2022-12-01T02:40:25.388Z,15.77
2022-12-01T02:43:06.163Z,14.48
2022-12-01T02:45:35.720Z,17.13
2022-12-01T02:48:05.389Z,16.63
2022-12-01T02:50:35.276Z,15.27
2022-12-01T02:53:04.543Z,15.05
2022-12-01T02:55:32.839Z,17.10
2022-12-01T02:57:59.558Z,15.55
2022-12-01T03:00:26.387Z,16.48
2022-12-01T03:02:53.108Z,16.55
2022-12-01T03:05:28.363Z,16.75
2022-12-01T03:08:36.543Z,18.20
2022-12-01T03:11:03.718Z,17.35
2022-12-01T03:13:46.503Z,18.10
2022-12-01T03:16:25.156Z,19.15
2022-12-01T03:19:04.283Z,17.98
2022-12-01T03:21:30.930Z,17.17
2022-12-01T03:24:11.825Z,17.00
2022-12-01T03:26:42.055Z,18.27
2022-12-01T03:29:13.691Z,18.38
2022-12-01T03:31:46.201Z,16.90
2022-12-01T03:34:18.138Z,18.15
2022-12-01T03:36:56.210Z,18.02
2022-12-01T03:39:29.737Z,18.15
2022-12-01T03:42:05.746Z,17.63
2022-12-01T03:44:47.947Z,18.75
2022-12-01T03:47:21.060Z,19.52
2022-12-01T03:49:51.576Z,18.13
2022-12-01T03:52:40.328Z,18.13
2022-12-01T03:55:22.749Z,17.77
2022-12-01T03:58:05.547Z,16.77
2022-12-01T04:00:33.245Z,16.15
2022-12-01T04:03:05.174Z,17.77
2022-12-01T04:05:33.959Z,15.75
2022-12-01T04:08:01.222Z,16.42
2022-12-01T04:10:28.075Z,17.23
2022-12-01T04:12:59.299Z,16.10
2022-12-01T04:15:26.890Z,14.57
2022-12-01T04:17:53.713Z,16.65
2022-12-01T04:20:20.617Z,16.33
2022-12-01T04:22:48.125Z,16.55
2022-12-01T04:25:15.050Z,15.63
2022-12-01T04:27:42.007Z,15.77
2022-12-01T04:30:09.488Z,14.52
2022-12-01T04:32:40.847Z,13.90
2022-12-01T04:35:09.023Z,14.38
2022-12-01T04:37:36.069Z,14.20
2022-12-01T04:40:03.185Z,14.45
2022-12-01T04:42:30.126Z,14.18
2022-12-01T04:44:56.816Z,14.10
2022-12-01T04:47:23.586Z,15.32
2022-12-01T04:49:50.398Z,15.18
2022-12-01T04:52:17.360Z,14.38
2022-12-01T04:54:43.984Z,16.30
2022-12-01T04:57:10.595Z,13.85
2022-12-01T04:59:37.387Z,14.43
2022-12-01T05:02:04.377Z,15.43
2022-12-01T05:04:32.626Z,15.23
2022-12-01T05:06:59.377Z,14.13
2022-12-01T05:09:26.063Z,14.15
2022-12-01T05:11:52.709Z,15.90
2022-12-01T05:14:19.470Z,15.65
2022-12-01T05:16:48.281Z,15.48
2022-12-01T05:19:33.420Z,15.50
2022-12-01T05:22:00.040Z,14.18
2022-12-01T05:24:26.706Z,17.10
2022-12-01T05:26:53.484Z,15.85
2022-12-01T05:29:20.203Z,15.35
2022-12-01T05:31:47.261Z,16.63
2022-12-01T05:34:14.504Z,15.10
2022-12-01T05:36:42.109Z,15.77
2022-12-01T05:39:08.785Z,15.80
2022-12-01T05:41:35.621Z,15.27
2022-12-01T05:44:02.368Z,15.15
2022-12-01T05:46:41.584Z,13.80
2022-12-01T05:49:08.237Z,14.52
2022-12-01T05:51:35.021Z,14.68
2022-12-01T05:54:03.191Z,15.10
2022-12-01T05:56:29.888Z,15.60
2022-12-01T05:58:56.626Z,15.45
2022-12-01T06:01:23.468Z,16.40
2022-12-01T06:03:50.192Z,14.55
2022-12-01T06:06:17.017Z,14.32
2022-12-01T06:08:43.784Z,14.18
2022-12-01T06:11:10.424Z,14.15
2022-12-01T06:13:37.073Z,16.15
2022-12-01T06:16:06.171Z,14.30
2022-12-01T06:18:35.659Z,14.48
2022-12-01T06:21:02.756Z,13.90
2022-12-01T06:23:30.725Z,14.30
2022-12-01T06:25:58.354Z,13.60
2022-12-01T06:28:59.265Z,15.65
2022-12-01T06:31:25.950Z,14.02
2022-12-01T06:33:52.645Z,14.98
2022-12-01T06:36:19.437Z,14.45
2022-12-01T06:38:46.085Z,16.45
2022-12-01T06:41:12.722Z,15.90
2022-12-01T06:43:39.474Z,15.32
2022-12-01T06:46:06.748Z,14.82
2022-12-01T06:48:34.494Z,14.82
2022-12-01T06:51:02.585Z,14.57
2022-12-01T06:53:29.852Z,12.80
2022-12-01T06:56:01.125Z,13.25
2022-12-01T06:58:28.228Z,13.10
2022-12-01T07:00:55.325Z,14.50
2022-12-01T07:03:22.062Z,11.50
2022-12-01T07:05:58.798Z,11.45
2022-12-01T07:08:26.947Z,12.80
2022-12-01T07:10:57.766Z,12.15
2022-12-01T07:13:28.727Z,14.63
2022-12-01T07:15:58.352Z,13.75
2022-12-01T07:18:25.131Z,12.52
2022-12-01T07:20:51.729Z,13.82
2022-12-01T07:23:18.445Z,13.63
2022-12-01T07:25:45.245Z,12.82
2022-12-01T07:28:12.031Z,13.25
2022-12-01T07:30:39.082Z,12.93
2022-12-01T07:33:05.873Z,12.52
2022-12-01T07:35:32.487Z,13.70
2022-12-01T07:37:59.146Z,13.18
2022-12-01T07:40:26.093Z,14.77
2022-12-01T07:42:52.738Z,13.70
2022-12-01T07:45:19.349Z,15.77
2022-12-01T07:47:46.138Z,16.08
2022-12-01T07:50:12.959Z,15.98
2022-12-01T07:52:39.624Z,13.93
2022-12-01T07:55:06.929Z,14.35
2022-12-01T07:57:38.580Z,15.35
2022-12-01T08:00:06.124Z,14.80
2022-12-01T08:02:32.895Z,13.98
2022-12-01T08:04:59.905Z,13.65
2022-12-01T08:07:29.839Z,15.20
2022-12-01T08:09:56.866Z,15.40
2022-12-01T08:12:23.545Z,14.25
2022-12-01T08:14:50.150Z,14.45
2022-12-01T08:17:16.817Z,15.77
2022-12-01T08:19:43.518Z,15.05
2022-12-01T08:22:10.163Z,15.40
2022-12-01T08:24:36.907Z,14.10
2022-12-01T08:27:03.649Z,12.80
2022-12-01T08:29:30.381Z,14.80
2022-12-01T08:32:00.156Z,14.63
2022-12-01T08:34:26.823Z,15.30
2022-12-01T08:36:53.493Z,13.82
2022-12-01T08:39:20.254Z,12.60
2022-12-01T08:41:46.947Z,13.80
2022-12-01T08:44:13.807Z,14.40
2022-12-01T08:46:42.909Z,12.70
2022-12-01T08:49:09.661Z,11.88
2022-12-01T08:51:37.196Z,13.48
2022-12-01T08:54:04.375Z,13.43
2022-12-01T08:56:50.620Z,13.68
2022-12-01T08:59:39.158Z,14.45
2022-12-01T09:04:55.843Z,13.15
2022-12-01T09:07:26.389Z,11.90
2022-12-01T09:09:53.711Z,13.63
2022-12-01T09:12:20.391Z,13.00
2022-12-01T09:14:49.969Z,13.32
2022-12-01T09:17:17.725Z,13.30
2022-12-01T09:38:32.583Z,17.67
2022-12-01T09:41:31.213Z,18.13
2022-12-01T09:44:17.391Z,18.77
2022-12-01T09:46:50.085Z,17.13
2022-12-01T09:49:41.802Z,19.00
2022-12-01T09:52:14.232Z,19.75
2022-12-01T09:54:41.335Z,19.38
2022-12-01T09:57:25.980Z,20.23
2022-12-01T09:59:53.697Z,16.83
2022-12-01T10:02:26.424Z,20.42
2022-12-01T10:04:56.547Z,18.42
2022-12-01T10:07:31.445Z,20.20
2022-12-01T10:10:01.233Z,19.40
2022-12-01T10:12:34.118Z,19.67
2022-12-01T10:15:39.425Z,19.77
2022-12-01T10:18:06.335Z,18.45
2022-12-01T10:21:26.359Z,19.88
2022-12-01T10:24:01.963Z,19.05
2022-12-01T10:26:37.596Z,19.55
2022-12-01T10:29:13.770Z,20.52
2022-12-01T10:31:52.977Z,20.35
2022-12-01T10:34:28.644Z,19.38
2022-12-01T10:36:59.305Z,21.10
2022-12-01T10:39:35.171Z,18.98
2022-12-01T10:44:35.482Z,19.85
2022-12-01T10:47:02.651Z,19.15
2022-12-01T10:49:39.037Z,20.33
2022-12-01T10:52:06.917Z,19.77
2022-12-01T10:54:37.554Z,21.90
2022-12-01T10:57:06.386Z,19.52
2022-12-01T11:00:06.194Z,21.90
2022-12-01T11:02:33.674Z,18.98
2022-12-01T11:31:53.244Z,20.70
2022-12-01T11:36:59.841Z,20.38
2022-12-01T11:39:36.938Z,19.30
2022-12-01T11:42:07.458Z,18.52
2022-12-01T11:44:51.009Z,18.85
2022-12-01T11:47:23.532Z,19.05
2022-12-01T11:50:02.746Z,18.75
2022-12-01T11:52:36.816Z,19.10
2022-12-01T11:55:12.464Z,18.08
2022-12-01T11:57:42.860Z,18.38
2022-12-01T12:11:08.741Z,18.83
2022-12-01T12:27:27.258Z,17.75
2022-12-01T12:59:22.911Z,19.48
2022-12-01T13:02:21.711Z,19.55
2022-12-01T13:04:54.311Z,19.75
2022-12-01T13:07:20.987Z,20.45
2022-12-01T13:09:53.657Z,17.95
2022-12-01T13:12:30.828Z,17.77
2022-12-01T13:15:03.492Z,18.65
2022-12-01T13:17:43.897Z,19.35
2022-12-01T13:20:15.647Z,20.50
2022-12-01T13:22:42.500Z,20.63
2022-12-01T13:25:33.174Z,20.80
2022-12-01T13:28:02.891Z,21.75
2022-12-01T13:30:34.167Z,18.65
2022-12-01T13:33:06.876Z,21.13
2022-12-01T13:35:36.718Z,21.70
2022-12-01T13:38:22.016Z,19.98
2022-12-01T13:43:37.743Z,20.52
2022-12-01T13:46:04.731Z,21.27
2022-12-01T13:48:37.393Z,20.52
2022-12-01T13:51:05.155Z,19.05
2022-12-01T13:53:33.301Z,20.60
2022-12-01T13:56:02.682Z,18.65
2022-12-01T13:58:35.366Z,20.48
2022-12-01T14:19:53.651Z,20.02
2022-12-01T14:22:38.223Z,21.42
2022-12-01T14:25:28.596Z,20.25
2022-12-01T14:27:57.787Z,18.65
2022-12-01T14:30:44.510Z,20.33
2022-12-01T14:33:42.009Z,21.00
2022-12-01T14:36:23.597Z,19.45
2022-12-01T14:39:11.131Z,19.83
2022-12-01T14:41:45.677Z,20.88
2022-12-01T14:44:29.267Z,19.45
2022-12-01T14:47:10.984Z,18.65
2022-12-01T14:49:39.901Z,18.98
2022-12-01T14:52:14.571Z,18.40
2022-12-01T14:54:47.657Z,18.95
2022-12-01T14:57:19.081Z,20.90
2022-12-01T14:59:45.882Z,18.45
2022-12-01T15:40:11.968Z,19.05
2022-12-01T15:42:43.133Z,20.02
2022-12-01T15:45:12.833Z,16.98
2022-12-01T15:47:45.113Z,19.02
2022-12-01T15:50:39.732Z,16.50
2022-12-01T15:53:26.179Z,19.30
2022-12-01T15:55:58.821Z,18.52
2022-12-01T15:58:30.422Z,18.40
2022-12-01T16:27:57.550Z,15.32
2022-12-01T16:35:40.961Z,16.95
2022-12-01T18:13:12.613Z,15.82
2022-12-01T18:15:59.065Z,15.63
2022-12-01T19:21:28.630Z,15.52
2022-12-01T19:23:53.818Z,14.05
2022-12-01T19:26:23.254Z,13.98
2022-12-01T19:28:50.188Z,14.45
2022-12-01T19:31:25.094Z,13.68
2022-12-01T19:33:53.867Z,14.70
2022-12-01T19:36:26.140Z,14.63
2022-12-01T19:38:53.632Z,13.45
2022-12-01T19:57:27.489Z,13.63
2022-12-01T20:02:35.526Z,15.27
2022-12-01T20:05:02.350Z,14.05
2022-12-01T20:07:32.125Z,13.30
2022-12-01T20:09:59.183Z,14.70
2022-12-01T20:12:28.833Z,15.25
2022-12-01T20:14:56.398Z,13.70
2022-12-01T20:17:23.278Z,13.95
2022-12-01T20:41:22.052Z,14.57
2022-12-01T20:43:48.758Z,14.10
2022-12-01T20:46:16.085Z,13.70
2022-12-01T20:48:43.418Z,12.90
2022-12-01T20:51:13.096Z,15.13
2022-12-01T20:53:42.410Z,15.10
2022-12-01T20:56:14.729Z,14.57
2022-12-01T20:58:41.707Z,12.25
2022-12-01T21:01:17.202Z,14.05
2022-12-01T21:03:45.995Z,12.25
2022-12-01T21:06:14.960Z,13.43
2022-12-01T21:22:46.245Z,11.82
2022-12-01T21:25:51.201Z,13.90
2022-12-01T21:31:53.007Z,11.50
2022-12-01T21:45:00.671Z,12.93
2022-12-01T21:52:08.540Z,13.48
2022-12-01T21:55:35.315Z,12.70
2022-12-01T21:58:27.278Z,12.15
2022-12-01T23:21:56.978Z,14.25
2022-12-01T23:24:33.685Z,16.80
2022-12-01T23:27:10.080Z,13.77
2022-12-01T23:30:04.202Z,14.68
2022-12-01T23:32:34.893Z,14.45
2022-12-01T23:35:28.391Z,15.90
2022-12-01T23:38:29.634Z,16.70
